createdAt,value
2022-08-24T00:00:38.377Z,21.17
2022-08-24T00:01:38.369Z,21.23
2022-08-24T00:02:38.486Z,21.27
2022-08-24T00:03:38.472Z,21.24
2022-08-24T00:04:38.334Z,21.21
2022-08-24T00:05:38.324Z,21.20
2022-08-24T00:06:38.313Z,21.11
2022-08-24T00:07:38.316Z,20.91
2022-08-24T00:08:38.291Z,20.93
2022-08-24T00:09:38.282Z,20.95
2022-08-24T00:10:38.268Z,20.95
2022-08-24T00:11:38.259Z,20.90
2022-08-24T00:12:38.246Z,20.83
2022-08-24T00:13:39.467Z,20.95
2022-08-24T00:14:38.224Z,20.83
2022-08-24T00:15:38.214Z,20.84
2022-08-24T00:16:38.240Z,20.83
2022-08-24T00:17:38.194Z,20.86
2022-08-24T00:18:38.192Z,20.79
2022-08-24T00:19:38.174Z,20.83
2022-08-24T00:20:40.045Z,20.81
2022-08-24T00:21:39.149Z,20.87
2022-08-24T00:22:38.137Z,20.89
2022-08-24T00:23:38.141Z,20.87
2022-08-24T00:24:38.119Z,20.90
2022-08-24T00:25:38.104Z,20.86
2022-08-24T00:26:38.094Z,20.89
2022-08-24T00:27:38.085Z,20.87
2022-08-24T00:28:38.080Z,20.64
2022-08-24T00:29:38.065Z,20.71
2022-08-24T00:30:38.050Z,20.64
2022-08-24T00:31:38.112Z,20.59
2022-08-24T00:32:38.026Z,20.65
2022-08-24T00:33:38.040Z,20.61
2022-08-24T00:34:38.007Z,20.54
2022-08-24T00:35:37.996Z,20.61
2022-08-24T00:36:37.983Z,20.62
2022-08-24T00:37:37.978Z,20.59
2022-08-24T00:38:37.973Z,20.59
2022-08-24T00:39:37.952Z,20.59
2022-08-24T00:40:37.939Z,20.54
2022-08-24T00:41:37.929Z,20.62
2022-08-24T00:42:37.918Z,20.53
2022-08-24T00:43:37.923Z,20.58
2022-08-24T00:44:37.898Z,20.56
2022-08-24T00:45:37.906Z,20.47
2022-08-24T00:46:37.876Z,20.49
2022-08-24T00:47:37.865Z,20.47
2022-08-24T00:48:37.862Z,20.43
2022-08-24T00:49:37.843Z,20.47
2022-08-24T00:50:37.831Z,20.46
2022-08-24T00:51:37.823Z,20.47
2022-08-24T00:52:37.808Z,20.50
2022-08-24T00:53:37.812Z,20.58
2022-08-24T00:54:37.792Z,20.49
2022-08-24T00:55:37.779Z,20.61
2022-08-24T00:56:37.765Z,20.56
2022-08-24T00:57:37.755Z,20.56
2022-08-24T00:58:37.762Z,20.58
2022-08-24T00:59:37.732Z,20.65
2022-08-24T01:00:37.799Z,20.53
2022-08-24T01:01:37.753Z,20.54
2022-08-24T01:02:37.743Z,20.58
2022-08-24T01:03:37.717Z,20.62
2022-08-24T01:04:37.676Z,20.62
2022-08-24T01:05:37.667Z,20.62
2022-08-24T01:06:37.654Z,20.66
2022-08-24T01:07:37.646Z,20.61
2022-08-24T01:08:37.643Z,20.61
2022-08-24T01:09:37.625Z,20.64
2022-08-24T01:10:37.610Z,20.61
2022-08-24T01:11:37.602Z,20.56
2022-08-24T01:12:37.589Z,20.49
2022-08-24T01:13:37.595Z,20.41
2022-08-24T01:14:37.566Z,20.34
2022-08-24T01:15:37.567Z,20.41
2022-08-24T01:16:37.602Z,20.43
2022-08-24T01:17:39.057Z,20.47
2022-08-24T01:18:37.538Z,20.49
2022-08-24T01:19:37.512Z,20.47
2022-08-24T01:20:37.503Z,20.54
2022-08-24T01:21:37.496Z,20.54
2022-08-24T01:22:37.479Z,20.54
2022-08-24T01:23:37.478Z,20.61
2022-08-24T01:24:37.458Z,20.58
2022-08-24T01:25:37.446Z,20.56
2022-08-24T01:26:37.834Z,20.54
2022-08-24T01:27:37.426Z,20.53
2022-08-24T01:28:37.424Z,20.53
2022-08-24T01:29:37.406Z,20.59
2022-08-24T01:30:37.393Z,20.56
2022-08-24T01:31:37.459Z,20.51
2022-08-24T01:32:37.370Z,20.54
2022-08-24T01:33:37.374Z,20.56
2022-08-24T01:34:37.347Z,20.58
2022-08-24T01:35:37.337Z,20.58
2022-08-24T01:36:37.328Z,20.50
2022-08-24T01:37:37.319Z,20.54
2022-08-24T01:38:37.323Z,20.49
2022-08-24T01:39:37.294Z,20.42
2022-08-24T01:40:37.283Z,20.33
2022-08-24T01:41:37.272Z,20.41
2022-08-24T01:42:37.259Z,20.35
2022-08-24T01:43:37.449Z,20.33
2022-08-24T01:44:37.249Z,20.35
2022-08-24T01:45:37.229Z,20.34
2022-08-24T01:46:37.327Z,20.34
2022-08-24T01:47:37.208Z,20.33
2022-08-24T01:48:37.205Z,20.42
2022-08-24T01:49:37.187Z,20.38
2022-08-24T01:50:37.174Z,20.43
2022-08-24T01:51:37.164Z,20.39
2022-08-24T01:53:01.831Z,20.43
2022-08-24T01:53:38.151Z,20.39
2022-08-24T01:54:37.126Z,20.38
2022-08-24T01:55:37.117Z,20.41
2022-08-24T01:56:37.867Z,20.46
2022-08-24T01:57:37.097Z,20.47
2022-08-24T01:58:37.097Z,20.51
2022-08-24T01:59:37.075Z,20.49
2022-08-24T02:00:37.061Z,20.49
2022-08-24T02:01:37.110Z,20.54
2022-08-24T02:02:37.063Z,20.49
2022-08-24T02:03:37.039Z,20.56
2022-08-24T02:04:37.019Z,20.47
2022-08-24T02:05:37.008Z,20.47
2022-08-24T02:06:37.000Z,20.47
2022-08-24T02:07:36.986Z,20.50
2022-08-24T02:08:36.985Z,20.46
2022-08-24T02:09:36.964Z,20.38
2022-08-24T02:10:36.957Z,20.53
2022-08-24T02:11:36.943Z,20.35
2022-08-24T02:12:36.941Z,20.33
2022-08-24T02:13:36.922Z,20.33
2022-08-24T02:14:36.909Z,20.34
2022-08-24T02:15:36.952Z,20.35
2022-08-24T02:16:36.888Z,20.30
2022-08-24T02:17:36.893Z,20.41
2022-08-24T02:18:36.864Z,20.23
2022-08-24T02:19:36.856Z,20.30
2022-08-24T02:20:36.841Z,20.28
2022-08-24T02:21:36.836Z,20.30
2022-08-24T02:22:36.832Z,20.31
2022-08-24T02:23:36.811Z,20.34
2022-08-24T02:24:36.797Z,20.33
2022-08-24T02:25:36.790Z,20.30
2022-08-24T02:26:36.776Z,20.25
2022-08-24T02:27:36.779Z,20.35
2022-08-24T02:28:36.756Z,20.28
2022-08-24T02:29:36.744Z,20.27
2022-08-24T02:30:36.733Z,20.33
2022-08-24T02:31:36.796Z,20.31
2022-08-24T02:32:36.725Z,20.34
2022-08-24T02:33:36.706Z,20.39
2022-08-24T02:34:36.688Z,20.31
2022-08-24T02:35:36.683Z,20.31
2022-08-24T02:36:36.667Z,20.34
2022-08-24T02:37:36.671Z,20.38
2022-08-24T02:38:37.644Z,20.31
2022-08-24T02:39:36.635Z,20.31
2022-08-24T02:40:36.623Z,20.49
2022-08-24T02:41:36.614Z,20.49
2022-08-24T02:42:36.612Z,20.47
2022-08-24T02:43:36.591Z,20.47
2022-08-24T02:44:36.577Z,20.41
2022-08-24T02:45:36.570Z,20.33
2022-08-24T02:46:36.613Z,20.43
2022-08-24T02:47:38.739Z,20.41
2022-08-24T02:48:36.538Z,20.31
2022-08-24T02:49:36.525Z,20.31
2022-08-24T02:50:36.513Z,20.34
2022-08-24T02:51:42.237Z,20.38
2022-08-24T02:52:37.506Z,20.34
2022-08-24T02:53:36.481Z,20.39
2022-08-24T02:54:36.468Z,20.38
2022-08-24T02:55:36.460Z,20.33
2022-08-24T02:56:36.447Z,20.30
2022-08-24T02:57:36.449Z,20.31
2022-08-24T02:58:36.424Z,20.46
2022-08-24T02:59:36.414Z,20.38
2022-08-24T03:00:36.406Z,20.43
2022-08-24T03:01:36.497Z,20.41
2022-08-24T03:02:36.422Z,20.43
2022-08-24T03:03:36.375Z,20.47
2022-08-24T03:04:36.360Z,20.42
2022-08-24T03:05:36.349Z,20.38
2022-08-24T03:06:36.338Z,20.49
2022-08-24T03:07:36.337Z,20.49
2022-08-24T03:08:36.319Z,20.38
2022-08-24T03:09:36.307Z,20.35
2022-08-24T03:10:36.300Z,20.50
2022-08-24T03:11:36.285Z,20.41
2022-08-24T03:12:36.289Z,20.35
2022-08-24T03:13:36.259Z,20.53
2022-08-24T03:14:36.254Z,20.39
2022-08-24T03:15:36.285Z,20.39
2022-08-24T03:16:36.230Z,20.43
2022-08-24T03:17:36.233Z,20.38
2022-08-24T03:18:36.209Z,20.38
2022-08-24T03:19:36.197Z,20.35
2022-08-24T03:20:36.186Z,20.38
2022-08-24T03:21:36.174Z,20.39
2022-08-24T03:22:36.176Z,20.41
2022-08-24T03:23:36.157Z,20.39
2022-08-24T03:24:36.143Z,20.47
2022-08-24T03:25:36.130Z,20.35
2022-08-24T03:26:36.123Z,20.39
2022-08-24T03:27:36.119Z,20.42
2022-08-24T03:28:36.100Z,20.46
2022-08-24T03:29:36.141Z,20.38
2022-08-24T03:30:36.175Z,20.38
2022-08-24T03:31:36.065Z,20.41
2022-08-24T03:32:36.062Z,20.38
2022-08-24T03:33:36.047Z,20.38
2022-08-24T03:34:36.032Z,20.41
2022-08-24T03:35:36.019Z,20.39
2022-08-24T03:36:36.013Z,20.38
2022-08-24T03:37:36.000Z,20.39
2022-08-24T03:38:36.000Z,20.39
2022-08-24T03:39:35.980Z,20.49
2022-08-24T03:40:36.020Z,20.41
2022-08-24T03:41:36.552Z,20.46
2022-08-24T03:42:35.946Z,20.41
2022-08-24T03:43:35.943Z,20.35
2022-08-24T03:44:35.926Z,20.39
2022-08-24T03:45:36.025Z,20.47
2022-08-24T03:46:35.900Z,20.33
2022-08-24T03:47:35.890Z,20.31
2022-08-24T03:48:35.894Z,20.30
2022-08-24T03:49:35.867Z,20.34
2022-08-24T03:50:35.858Z,20.35
2022-08-24T03:51:35.844Z,20.35
2022-08-24T03:52:35.834Z,20.30
2022-08-24T03:53:35.833Z,20.34
2022-08-24T03:54:35.823Z,20.33
2022-08-24T03:55:35.812Z,20.38
2022-08-24T03:56:35.794Z,20.42
2022-08-24T03:57:35.778Z,20.38
2022-08-24T03:58:35.780Z,20.38
2022-08-24T03:59:37.697Z,20.39
2022-08-24T04:00:36.746Z,20.38
2022-08-24T04:01:35.770Z,20.41
2022-08-24T04:02:35.750Z,20.33
2022-08-24T04:03:35.725Z,20.35
2022-08-24T04:04:35.703Z,20.34
2022-08-24T04:05:35.692Z,20.33
2022-08-24T04:06:35.682Z,20.31
2022-08-24T04:07:35.670Z,20.33
2022-08-24T04:08:35.672Z,20.41
2022-08-24T04:09:35.647Z,20.43
2022-08-24T04:10:35.640Z,20.39
2022-08-24T04:11:38.399Z,20.31
2022-08-24T04:12:36.613Z,20.34
2022-08-24T04:13:35.618Z,20.42
2022-08-24T04:14:35.596Z,20.31
2022-08-24T04:15:35.581Z,20.38
2022-08-24T04:16:35.586Z,20.38
2022-08-24T04:17:35.560Z,20.35
2022-08-24T04:18:35.562Z,20.33
2022-08-24T04:19:35.537Z,20.35
2022-08-24T04:20:35.529Z,20.42
2022-08-24T04:21:35.663Z,20.34
2022-08-24T04:22:35.509Z,20.30
2022-08-24T04:23:47.454Z,20.25
2022-08-24T04:24:36.483Z,20.34
2022-08-24T04:25:35.471Z,20.39
2022-08-24T04:26:45.050Z,20.47
2022-08-24T04:27:36.468Z,20.33
2022-08-24T04:28:35.452Z,20.43
2022-08-24T04:29:35.427Z,20.42
2022-08-24T04:30:35.419Z,20.39
2022-08-24T04:31:35.490Z,20.39
2022-08-24T04:32:35.397Z,20.42
2022-08-24T04:33:35.394Z,20.43
2022-08-24T04:34:35.375Z,20.34
2022-08-24T04:35:35.363Z,20.47
2022-08-24T04:36:35.353Z,20.49
2022-08-24T04:37:35.341Z,20.54
2022-08-24T04:38:35.343Z,20.56
2022-08-24T04:39:35.318Z,20.50
2022-08-24T04:40:35.309Z,20.56
2022-08-24T04:41:35.297Z,20.54
2022-08-24T04:42:35.288Z,20.59
2022-08-24T04:43:35.305Z,20.62
2022-08-24T04:44:35.267Z,20.68
2022-08-24T04:45:35.311Z,20.69
2022-08-24T04:46:35.243Z,20.74
2022-08-24T04:47:35.231Z,20.71
2022-08-24T04:48:35.235Z,20.77
2022-08-24T04:49:35.209Z,20.80
2022-08-24T04:50:35.199Z,20.76
2022-08-24T04:51:36.784Z,20.87
2022-08-24T04:52:35.177Z,20.91
2022-08-24T04:53:35.176Z,20.81
2022-08-24T04:54:35.156Z,20.93
2022-08-24T04:55:35.141Z,20.90
2022-08-24T04:56:35.134Z,20.95
2022-08-24T04:57:35.133Z,20.98
2022-08-24T04:58:35.111Z,20.95
2022-08-24T04:59:35.102Z,21.08
2022-08-24T05:00:35.163Z,21.02
2022-08-24T05:01:35.082Z,21.08
2022-08-24T05:02:39.842Z,21.06
2022-08-24T05:03:36.055Z,21.09
2022-08-24T05:04:35.049Z,21.08
2022-08-24T05:05:35.039Z,21.20
2022-08-24T05:06:35.035Z,21.14
2022-08-24T05:07:35.029Z,21.16
2022-08-24T05:08:35.007Z,21.23
2022-08-24T05:09:35.000Z,21.34
2022-08-24T05:10:34.985Z,21.32
2022-08-24T05:11:34.972Z,21.34
2022-08-24T05:12:34.976Z,21.38
2022-08-24T05:13:34.953Z,21.39
2022-08-24T05:14:34.942Z,21.45
2022-08-24T05:15:34.958Z,21.53
2022-08-24T05:16:34.942Z,21.53
2022-08-24T05:17:34.926Z,21.56
2022-08-24T05:18:34.899Z,21.54
2022-08-24T05:19:34.888Z,21.60
2022-08-24T05:20:34.880Z,21.67
2022-08-24T05:21:34.867Z,21.64
2022-08-24T05:22:34.860Z,21.71
2022-08-24T05:23:34.855Z,21.67
2022-08-24T05:24:34.844Z,21.72
2022-08-24T05:25:34.823Z,21.90
2022-08-24T05:26:34.830Z,21.90
2022-08-24T05:27:34.803Z,21.75
2022-08-24T05:28:34.804Z,21.83
2022-08-24T05:29:34.808Z,21.91
2022-08-24T05:30:37.349Z,21.94
2022-08-24T05:31:34.795Z,21.99
2022-08-24T05:32:34.788Z,21.94
2022-08-24T05:33:34.758Z,22.04
2022-08-24T05:34:34.728Z,22.09
2022-08-24T05:35:34.724Z,22.07
2022-08-24T05:36:34.708Z,22.12
2022-08-24T05:37:34.701Z,22.13
2022-08-24T05:38:34.699Z,22.19
2022-08-24T05:39:34.675Z,22.19
2022-08-24T05:40:34.665Z,22.29
2022-08-24T05:41:34.652Z,22.32
2022-08-24T05:42:34.730Z,22.31
2022-08-24T05:43:34.630Z,22.46
2022-08-24T05:44:34.622Z,22.52
2022-08-24T05:45:34.608Z,22.60
2022-08-24T05:46:34.653Z,22.68
2022-08-24T05:47:34.599Z,22.67
2022-08-24T05:48:34.577Z,22.83
2022-08-24T05:49:37.279Z,22.75
2022-08-24T05:50:35.554Z,22.75
2022-08-24T05:51:34.568Z,22.75
2022-08-24T05:52:34.542Z,22.77
2022-08-24T05:53:34.521Z,22.83
2022-08-24T05:54:34.512Z,22.87
2022-08-24T05:55:34.497Z,22.83
2022-08-24T05:56:34.490Z,22.86
2022-08-24T05:57:34.489Z,22.86
2022-08-24T05:58:34.475Z,22.93
2022-08-24T05:59:34.457Z,22.99
2022-08-24T06:00:34.444Z,22.97
2022-08-24T06:01:34.550Z,23.05
2022-08-24T06:02:34.612Z,23.04
2022-08-24T06:03:34.418Z,23.08
2022-08-24T06:04:34.403Z,23.04
2022-08-24T06:05:34.386Z,23.04
2022-08-24T06:06:34.377Z,23.05
2022-08-24T06:07:34.365Z,23.05
2022-08-24T06:08:38.062Z,23.09
2022-08-24T06:09:35.366Z,23.14
2022-08-24T06:10:36.684Z,23.05
2022-08-24T06:11:34.319Z,23.05
2022-08-24T06:12:34.309Z,23.11
2022-08-24T06:13:34.305Z,23.11
2022-08-24T06:14:34.287Z,23.15
2022-08-24T06:15:34.272Z,23.29
2022-08-24T06:16:34.277Z,23.22
2022-08-24T06:17:34.360Z,23.17
2022-08-24T06:18:34.251Z,23.12
2022-08-24T06:19:34.230Z,23.15
2022-08-24T06:20:34.217Z,23.12
2022-08-24T06:21:34.207Z,23.07
2022-08-24T06:22:34.197Z,23.02
2022-08-24T06:23:34.192Z,22.93
2022-08-24T06:24:34.172Z,22.87
2022-08-24T06:25:34.161Z,22.89
2022-08-24T06:26:34.155Z,22.87
2022-08-24T06:27:34.139Z,22.92
2022-08-24T06:28:34.135Z,22.89
2022-08-24T06:29:34.115Z,22.90
2022-08-24T06:30:34.106Z,22.86
2022-08-24T06:31:39.434Z,22.84
2022-08-24T06:32:35.082Z,22.89
2022-08-24T06:33:34.082Z,22.89
2022-08-24T06:34:34.060Z,22.89
2022-08-24T06:35:34.047Z,22.89
2022-08-24T06:36:34.040Z,22.84
2022-08-24T06:37:34.026Z,22.86
2022-08-24T06:38:34.023Z,22.86
2022-08-24T06:39:34.004Z,22.83
2022-08-24T06:40:34.074Z,22.84
2022-08-24T06:41:33.982Z,22.80
2022-08-24T06:42:33.972Z,22.75
2022-08-24T06:43:33.970Z,22.83
2022-08-24T06:44:33.948Z,22.82
2022-08-24T06:45:33.937Z,22.77
2022-08-24T06:46:33.967Z,22.82
2022-08-24T06:47:33.914Z,22.72
2022-08-24T06:48:33.920Z,22.75
2022-08-24T06:49:33.892Z,22.72
2022-08-24T06:50:33.882Z,22.82
2022-08-24T06:51:33.870Z,22.77
2022-08-24T06:52:33.860Z,22.75
2022-08-24T06:53:33.858Z,22.75
2022-08-24T06:54:33.841Z,22.74
2022-08-24T06:55:33.827Z,22.80
2022-08-24T06:56:33.816Z,22.71
2022-08-24T06:57:33.836Z,22.78
2022-08-24T06:58:33.794Z,22.77
2022-08-24T06:59:33.780Z,22.77
2022-08-24T07:00:33.771Z,22.78
2022-08-24T07:01:33.827Z,22.74
2022-08-24T07:02:33.811Z,22.77
2022-08-24T07:03:33.736Z,22.71
2022-08-24T07:04:33.728Z,22.68
2022-08-24T07:05:33.716Z,22.67
2022-08-24T07:06:33.705Z,22.75
2022-08-24T07:07:33.705Z,22.74
2022-08-24T07:08:33.689Z,22.69
2022-08-24T07:09:33.673Z,22.68
2022-08-24T07:10:33.663Z,22.62
2022-08-24T07:11:33.654Z,22.59
2022-08-24T07:12:33.655Z,22.64
2022-08-24T07:13:33.630Z,22.62
2022-08-24T07:14:33.620Z,22.57
2022-08-24T07:15:33.684Z,22.59
2022-08-24T07:16:33.598Z,22.62
2022-08-24T07:17:33.598Z,22.59
2022-08-24T07:18:33.574Z,22.64
2022-08-24T07:19:33.567Z,22.67
2022-08-24T07:20:33.552Z,22.68
2022-08-24T07:21:33.542Z,22.80
2022-08-24T07:22:33.540Z,22.82
2022-08-24T07:23:42.063Z,22.86
2022-08-24T07:24:34.506Z,22.89
2022-08-24T07:25:33.500Z,22.87
2022-08-24T07:26:33.489Z,22.93
2022-08-24T07:27:33.487Z,22.96
2022-08-24T07:28:33.465Z,23.04
2022-08-24T07:29:56.495Z,23.01
2022-08-24T07:30:34.441Z,23.07
2022-08-24T07:31:35.611Z,23.05
2022-08-24T07:32:33.434Z,23.11
2022-08-24T07:33:33.411Z,23.17
2022-08-24T07:34:33.415Z,23.22
2022-08-24T07:35:33.415Z,23.22
2022-08-24T07:36:33.378Z,23.27
2022-08-24T07:37:41.076Z,23.24
2022-08-24T07:38:34.353Z,23.27
2022-08-24T07:39:33.346Z,23.38
2022-08-24T07:40:44.511Z,23.39
2022-08-24T07:41:43.459Z,23.39
2022-08-24T07:42:34.372Z,23.46
2022-08-24T07:43:33.302Z,23.47
2022-08-24T07:44:33.289Z,23.49
2022-08-24T07:45:33.285Z,23.52
2022-08-24T07:46:33.307Z,23.49
2022-08-24T07:47:44.723Z,23.52
2022-08-24T07:48:34.253Z,23.42
2022-08-24T07:49:37.443Z,23.46
2022-08-24T07:50:34.887Z,23.47
2022-08-24T07:52:33.208Z,23.55
2022-08-24T07:53:52.619Z,23.52
2022-08-24T07:54:34.174Z,23.60
2022-08-24T07:55:33.171Z,23.65
2022-08-24T07:56:33.157Z,23.70
2022-08-24T07:57:33.188Z,23.79
2022-08-24T07:58:33.132Z,23.79
2022-08-24T07:59:33.122Z,23.92
2022-08-24T08:00:33.114Z,24.00
2022-08-24T08:01:33.250Z,24.05
2022-08-24T08:02:36.423Z,24.27
2022-08-24T08:03:33.077Z,24.29
2022-08-24T08:04:33.087Z,24.45
2022-08-24T08:05:33.065Z,24.60
2022-08-24T08:06:33.067Z,24.76
2022-08-24T08:07:33.064Z,24.69
2022-08-24T08:08:33.023Z,24.69
2022-08-24T08:09:33.010Z,24.75
2022-08-24T08:10:32.998Z,24.69
2022-08-24T08:11:32.988Z,24.82
2022-08-24T08:12:32.985Z,24.77
2022-08-24T08:13:32.979Z,24.94
2022-08-24T08:14:32.953Z,25.01
2022-08-24T08:15:33.046Z,24.98
2022-08-24T08:16:33.024Z,24.98
2022-08-24T08:17:32.939Z,25.20
2022-08-24T08:18:32.910Z,25.24
2022-08-24T08:19:32.902Z,25.42
2022-08-24T08:20:32.890Z,25.61
2022-08-24T08:21:32.880Z,25.71
2022-08-24T08:22:32.892Z,26.01
2022-08-24T08:23:32.864Z,26.55
2022-08-24T08:24:32.847Z,27.16
2022-08-24T08:25:32.838Z,27.73
2022-08-24T08:26:32.827Z,28.10
2022-08-24T08:27:32.855Z,28.43
2022-08-24T08:28:35.624Z,28.82
2022-08-24T08:29:32.802Z,28.88
2022-08-24T08:30:32.786Z,29.26
2022-08-24T08:31:34.426Z,29.57
2022-08-24T08:32:32.771Z,30.08
2022-08-24T08:33:32.756Z,30.30
2022-08-24T08:34:32.761Z,30.38
2022-08-24T08:35:32.745Z,30.50
2022-08-24T08:36:32.721Z,30.81
2022-08-24T08:37:32.773Z,31.15
2022-08-24T08:38:32.701Z,31.46
2022-08-24T08:39:32.689Z,31.68
2022-08-24T08:40:32.681Z,31.75
2022-08-24T08:41:32.710Z,31.75
2022-08-24T08:42:32.667Z,31.91
2022-08-24T08:43:32.651Z,32.18
2022-08-24T08:44:32.640Z,32.27
2022-08-24T08:45:32.629Z,32.57
2022-08-24T08:46:33.957Z,32.67
2022-08-24T08:47:32.652Z,32.58
2022-08-24T08:48:32.594Z,32.67
2022-08-24T08:49:32.592Z,32.95
2022-08-24T08:50:32.615Z,32.80
2022-08-24T08:51:32.598Z,32.77
2022-08-24T08:52:32.576Z,32.80
2022-08-24T08:53:32.548Z,32.58
2022-08-24T08:54:32.583Z,32.03
2022-08-24T08:55:32.543Z,31.68
2022-08-24T08:56:32.535Z,31.13
2022-08-24T08:57:32.547Z,30.72
2022-08-24T08:58:32.641Z,30.49
2022-08-24T08:59:32.488Z,30.15
2022-08-24T09:00:32.481Z,29.93
2022-08-24T09:01:32.811Z,29.49
2022-08-24T09:02:32.468Z,29.19
2022-08-24T09:03:32.449Z,29.00
2022-08-24T09:04:32.482Z,28.68
2022-08-24T09:05:32.428Z,28.47
2022-08-24T09:06:32.415Z,28.32
2022-08-24T09:07:32.422Z,28.31
2022-08-24T09:08:32.395Z,28.29
2022-08-24T09:09:34.958Z,28.09
2022-08-24T09:10:32.374Z,27.98
2022-08-24T09:11:32.371Z,27.73
2022-08-24T09:12:32.367Z,27.59
2022-08-24T09:13:32.343Z,27.42
2022-08-24T09:14:32.336Z,27.33
2022-08-24T09:15:32.323Z,27.28
2022-08-24T09:16:32.543Z,27.16
2022-08-24T09:17:32.319Z,27.10
2022-08-24T09:18:32.290Z,27.13
2022-08-24T09:19:32.281Z,27.04
2022-08-24T09:20:32.269Z,27.02
2022-08-24T09:21:32.274Z,26.92
2022-08-24T09:22:32.250Z,26.76
2022-08-24T09:23:32.245Z,26.67
2022-08-24T09:24:32.232Z,26.52
2022-08-24T09:25:32.216Z,26.54
2022-08-24T09:26:32.218Z,26.44
2022-08-24T09:27:32.196Z,26.46
2022-08-24T09:28:32.186Z,26.31
2022-08-24T09:29:32.175Z,26.28
2022-08-24T09:30:32.207Z,26.25
2022-08-24T09:32:32.142Z,26.02
2022-08-24T09:33:32.155Z,26.04
2022-08-24T09:34:32.121Z,26.18
2022-08-24T09:35:32.111Z,26.15
2022-08-24T09:36:32.163Z,26.21
2022-08-24T09:37:32.089Z,26.15
2022-08-24T09:38:32.078Z,26.20
2022-08-24T09:39:32.068Z,26.28
2022-08-24T09:40:32.078Z,26.32
2022-08-24T09:41:32.063Z,26.36
2022-08-24T09:42:32.035Z,26.61
2022-08-24T09:43:32.028Z,26.65
2022-08-24T09:44:32.015Z,26.57
2022-08-24T09:45:32.005Z,26.50
2022-08-24T09:46:32.026Z,26.37
2022-08-24T09:47:31.999Z,26.46
2022-08-24T09:48:31.974Z,26.39
2022-08-24T09:49:31.960Z,26.49
2022-08-24T09:50:31.962Z,26.61
2022-08-24T09:51:31.972Z,26.55
2022-08-24T09:52:31.927Z,26.46
2022-08-24T09:53:31.937Z,26.52
2022-08-24T09:54:31.940Z,26.62
2022-08-24T09:55:31.913Z,26.55
2022-08-24T09:56:31.886Z,26.83
2022-08-24T09:57:50.415Z,26.80
2022-08-24T09:58:32.862Z,26.87
2022-08-24T09:59:31.883Z,26.81
2022-08-24T10:00:31.896Z,26.80
2022-08-24T10:01:31.886Z,26.77
2022-08-24T10:02:31.916Z,26.74
2022-08-24T10:03:36.205Z,26.80
2022-08-24T10:04:32.902Z,26.81
2022-08-24T10:05:36.036Z,26.81
2022-08-24T10:06:31.777Z,26.73
2022-08-24T10:07:31.804Z,26.67
2022-08-24T10:08:31.759Z,26.69
2022-08-24T10:09:31.748Z,26.69
2022-08-24T10:10:31.735Z,26.59
2022-08-24T10:11:31.740Z,26.49
2022-08-24T10:12:31.723Z,26.40
2022-08-24T10:13:31.706Z,26.42
2022-08-24T10:14:31.702Z,26.29
2022-08-24T10:15:31.696Z,26.27
2022-08-24T10:16:31.780Z,26.15
2022-08-24T10:17:31.664Z,26.17
2022-08-24T10:18:35.086Z,26.05
2022-08-24T10:19:31.644Z,26.05
2022-08-24T10:20:31.629Z,26.04
2022-08-24T10:21:31.635Z,26.08
2022-08-24T10:22:31.608Z,25.93
2022-08-24T10:23:31.597Z,26.06
2022-08-24T10:24:31.586Z,26.01
2022-08-24T10:25:31.592Z,26.18
2022-08-24T10:26:31.574Z,26.15
2022-08-24T10:27:31.557Z,26.31
2022-08-24T10:28:31.543Z,26.40
2022-08-24T10:29:31.534Z,26.50
2022-08-24T10:30:31.533Z,26.42
2022-08-24T10:31:31.596Z,26.50
2022-08-24T10:32:31.499Z,26.61
2022-08-24T10:33:31.493Z,26.74
2022-08-24T10:34:31.483Z,26.69
2022-08-24T10:35:31.559Z,26.67
2022-08-24T10:36:31.471Z,26.86
2022-08-24T10:37:31.451Z,26.74
2022-08-24T10:38:31.449Z,26.79
2022-08-24T10:39:31.471Z,26.79
2022-08-24T10:40:31.473Z,26.73
2022-08-24T10:41:31.408Z,26.77
2022-08-24T10:42:31.394Z,26.76
2022-08-24T10:43:31.385Z,26.65
2022-08-24T10:44:31.387Z,26.69
2022-08-24T10:45:31.443Z,26.64
2022-08-24T10:46:31.360Z,26.50
2022-08-24T10:47:31.342Z,26.43
2022-08-24T10:48:33.434Z,26.44
2022-08-24T10:49:31.332Z,26.36
2022-08-24T10:50:31.442Z,26.37
2022-08-24T10:51:31.304Z,26.39
2022-08-24T10:52:31.292Z,26.40
2022-08-24T10:53:31.279Z,26.37
2022-08-24T10:54:31.278Z,26.27
2022-08-24T10:55:31.261Z,26.36
2022-08-24T10:56:31.246Z,26.28
2022-08-24T10:57:31.236Z,26.40
2022-08-24T10:58:31.223Z,26.39
2022-08-24T10:59:31.753Z,26.46
2022-08-24T11:00:31.203Z,26.39
2022-08-24T11:01:31.243Z,26.54
2022-08-24T11:02:31.275Z,26.52
2022-08-24T11:03:31.171Z,26.46
2022-08-24T11:04:31.171Z,26.44
2022-08-24T11:05:31.152Z,26.46
2022-08-24T11:06:31.138Z,26.43
2022-08-24T11:07:31.132Z,26.37
2022-08-24T11:08:31.121Z,26.40
2022-08-24T11:09:31.124Z,26.27
2022-08-24T11:10:31.095Z,26.28
2022-08-24T11:11:31.085Z,26.24
2022-08-24T11:12:31.073Z,26.28
2022-08-24T11:13:31.065Z,26.17
2022-08-24T11:14:31.061Z,26.17
2022-08-24T11:15:31.091Z,26.05
2022-08-24T11:16:31.143Z,26.05
2022-08-24T11:17:31.042Z,26.15
2022-08-24T11:18:31.014Z,26.21
2022-08-24T11:19:31.021Z,26.21
2022-08-24T11:20:30.990Z,26.24
2022-08-24T11:21:30.981Z,26.21
2022-08-24T11:22:30.967Z,26.20
2022-08-24T11:23:31.809Z,26.21
2022-08-24T11:24:30.959Z,26.28
2022-08-24T11:25:30.936Z,26.35
2022-08-24T11:26:30.926Z,26.43
2022-08-24T11:27:30.915Z,26.40
2022-08-24T11:28:30.907Z,26.47
2022-08-24T11:29:30.904Z,26.44
2022-08-24T11:30:30.888Z,26.42
2022-08-24T11:31:35.068Z,26.36
2022-08-24T11:32:30.874Z,26.36
2022-08-24T11:33:30.849Z,26.31
2022-08-24T11:34:30.852Z,26.17
2022-08-24T11:35:30.832Z,26.15
2022-08-24T11:36:30.820Z,26.11
2022-08-24T11:37:30.926Z,26.18
2022-08-24T11:38:30.800Z,26.21
2022-08-24T11:39:30.792Z,26.20
2022-08-24T11:40:30.896Z,26.25
2022-08-24T11:41:30.767Z,26.22
2022-08-24T11:42:30.849Z,26.20
2022-08-24T11:43:30.740Z,26.17
2022-08-24T11:44:30.745Z,26.17
2022-08-24T11:45:30.719Z,26.06
2022-08-24T11:46:30.760Z,26.11
2022-08-24T11:47:30.696Z,26.18
2022-08-24T11:48:30.688Z,26.21
2022-08-24T11:49:30.703Z,26.20
2022-08-24T11:50:30.673Z,26.32
2022-08-24T11:51:30.655Z,26.29
2022-08-24T11:52:30.646Z,26.35
2022-08-24T11:53:30.655Z,26.42
2022-08-24T11:54:30.624Z,26.43
2022-08-24T11:55:30.707Z,26.52
2022-08-24T11:56:31.601Z,26.46
2022-08-24T11:57:30.590Z,26.58
2022-08-24T11:58:30.582Z,26.52
2022-08-24T11:59:30.581Z,26.55
2022-08-24T12:00:30.587Z,26.64
2022-08-24T12:01:30.547Z,26.68
2022-08-24T12:02:30.646Z,26.83
2022-08-24T12:03:30.525Z,26.68
2022-08-24T12:04:30.523Z,26.67
2022-08-24T12:05:30.504Z,26.57
2022-08-24T12:06:31.482Z,26.58
2022-08-24T12:07:30.481Z,26.54
2022-08-24T12:08:30.474Z,26.54
2022-08-24T12:09:30.469Z,26.47
2022-08-24T12:10:32.848Z,26.40
2022-08-24T12:11:30.441Z,26.37
2022-08-24T12:12:30.430Z,26.37
2022-08-24T12:13:30.416Z,26.46
2022-08-24T12:14:30.428Z,26.46
2022-08-24T12:15:30.396Z,26.40
2022-08-24T12:16:30.450Z,26.39
2022-08-24T12:17:30.374Z,26.46
2022-08-24T12:18:30.366Z,26.44
2022-08-24T12:19:30.411Z,26.43
2022-08-24T12:20:30.347Z,26.42
2022-08-24T12:21:30.331Z,26.47
2022-08-24T12:22:30.321Z,26.44
2022-08-24T12:23:30.316Z,26.52
2022-08-24T12:24:30.314Z,26.55
2022-08-24T12:25:30.289Z,26.62
2022-08-24T12:26:30.280Z,26.64
2022-08-24T12:27:30.265Z,26.69
2022-08-24T12:28:30.269Z,26.67
2022-08-24T12:29:30.274Z,26.58
2022-08-24T12:30:30.234Z,26.64
2022-08-24T12:31:30.303Z,26.72
2022-08-24T12:32:30.213Z,26.73
2022-08-24T12:33:30.213Z,26.65
2022-08-24T12:34:30.192Z,26.67
2022-08-24T12:35:30.180Z,26.68
2022-08-24T12:36:30.170Z,26.69
2022-08-24T12:37:30.158Z,26.72
2022-08-24T12:38:30.328Z,26.74
2022-08-24T12:39:30.137Z,26.77
2022-08-24T12:40:30.285Z,26.76
2022-08-24T12:41:30.117Z,26.69
2022-08-24T12:42:30.109Z,26.76
2022-08-24T12:43:30.094Z,26.76
2022-08-24T12:44:30.095Z,26.73
2022-08-24T12:45:30.071Z,26.69
2022-08-24T12:46:30.446Z,26.73
2022-08-24T12:47:30.051Z,26.74
2022-08-24T12:48:30.041Z,26.76
2022-08-24T12:49:30.042Z,26.69
2022-08-24T12:50:30.022Z,26.67
2022-08-24T12:51:30.008Z,26.57
2022-08-24T12:52:29.997Z,26.62
2022-08-24T12:53:30.294Z,26.49
2022-08-24T12:54:33.210Z,26.40